Dawu, China
Current Conditions -  °F | °C
As of 1:00 PM on Sunday 26 Oct 2014 (Local Time) from ZUUU Reporting Station
Haze Haze  
Wind Chill: 70°   Ceiling: Unl
Heat Index: 70°   Visibility: 0.75mi
Dew Point: 61°   Wind: 2mph
Humidity: 73%   Direction: NA
Pressure: 30.12"   Gusts: NA
Location:  30.98°N, 101.12°E
Report Text: ZUUU 260500Z VRB01MPS 1200 R02L/1100N R02R/1000V1100N BRNSC21/16 Q1020 NOSIG
Loading
Personal Weather Stations






























Interactive Weather Map
Tropical Storm Tracking
New forecast layout! Learn more

10-Day Weather Forecast

Advertisements
Track Severe Weather on mobile